Flight Track Log - Related Links

Times and Time Zones

All times are in EDT time to prevent confusion due to time zone crossing. See the MSR647 flight status page for this flight to view local times or setup timezone preferences in your user account.

Time Position Orientation Groundspeed Altitude Reporting Facility
EDT Latitude Longitude Course Direction KTS MPH feet Rate Location/Type
Tue 11:36:15 AM 29.8255 32.4944 108° East  Level Estimated
Tue 11:37:15 AM 29.7890 32.6260 108° East  Level Estimated
Tue 11:38:15 AM 29.7523 32.7574 108° East  Level Estimated
Tue 11:39:15 AM 29.7155 32.8888 108° East  Level Estimated
Tue 11:40:15 AM 29.6786 33.0200 108° East  Level Estimated
Tue 11:41:15 AM 29.6415 33.1512 108° East  Level Estimated
Tue 11:42:15 AM 29.6043 33.2822 108° East  Level Estimated
Tue 11:43:15 AM 29.5670 33.4132 108° East  Level Estimated
Tue 11:44:15 AM 29.5296 33.5440 108° East  Level Estimated
Tue 11:45:15 AM 29.4920 33.6748 108° East  Level Estimated
Tue 11:46:15 AM 29.4543 33.8055 108° East  Level Estimated
Tue 11:47:15 AM 29.4165 33.9361 108° East  Level Estimated
Tue 11:48:15 AM 29.3785 34.0665 108° East  Level Estimated
Tue 11:49:15 AM 29.3405 34.1969 109° East  Level Estimated
Tue 11:50:15 AM 29.3023 34.3272 109° East  Level Estimated
Tue 11:51:15 AM 29.2639 34.4574 109° East  Level Estimated
Tue 11:52:15 AM 29.2255 34.5875 109° East  Level Estimated
Tue 11:53:15 AM 29.1869 34.7175 109° East  Level Estimated
Tue 11:54:15 AM 29.1482 34.8474 109° East  Level Estimated
Tue 11:55:15 AM 29.1094 34.9771 109° East  Level Estimated
Tue 11:56:15 AM 29.0704 35.1068 109° East  Level Estimated
Tue 11:57:15 AM 29.0313 35.2364 109° East  Level Estimated
Tue 11:58:15 AM 28.9921 35.3659 109° East  Level Estimated
Tue 11:59:15 AM 28.9528 35.4953 109° East  Level Estimated
Tue 12:00:15 PM 28.9133 35.6246 109° East  Level Estimated
Tue 12:01:15 PM 28.8737 35.7538 109° East  Level Estimated
Tue 12:02:15 PM 28.8340 35.8829 109° East  Level Estimated
Tue 12:03:15 PM 28.7942 36.0119 109° East  Level Estimated
Tue 12:04:15 PM 28.7543 36.1409 110° East  Level Estimated
Tue 12:05:15 PM 28.7142 36.2697 110° East  Level Estimated
Tue 12:06:15 PM 28.6740 36.3984 110° East  Level Estimated
Tue 12:07:15 PM 28.6337 36.5270 110° East  Level Estimated
Tue 12:08:15 PM 28.5933 36.6555 110° East  Level Estimated
Tue 12:09:15 PM 28.5527 36.7839 110° East  Level Estimated
Tue 12:10:15 PM 28.5120 36.9122 110° East  Level Estimated
Tue 12:11:15 PM 28.4712 37.0404 110° East  Level Estimated
Tue 12:12:15 PM 28.4303 37.1685 110° East  Level Estimated
Tue 12:13:15 PM 28.3893 37.2966 110° East  Level Estimated
Tue 12:14:15 PM 28.3481 37.4245 110° East  Level Estimated
Tue 12:15:15 PM 28.3069 37.5523 110° East  Level Estimated
Tue 12:16:15 PM 28.2655 37.6800 110° East  Level Estimated
Tue 12:17:15 PM 28.2239 37.8076 110° East  Level Estimated
Tue 12:18:15 PM 28.1823 37.9352 110° East  Level Estimated
Tue 12:19:15 PM 28.1406 38.0626 110° East  Level Estimated
Tue 12:20:15 PM 28.0987 38.1899 110° East  Level Estimated
Tue 12:21:15 PM 28.0567 38.3171 111° Southeast  Level Estimated
Tue 12:22:15 PM 28.0146 38.4442 111° Southeast  Level Estimated
Tue 12:23:15 PM 27.9724 38.5713 111° Southeast  Level Estimated
Tue 12:24:15 PM 27.9301 38.6982 111° Southeast  Level Estimated
Tue 12:25:15 PM 27.8876 38.8250 111° Southeast  Level Estimated
Tue 12:26:15 PM 27.8451 38.9517 111° Southeast  Level Estimated
Tue 12:27:15 PM 27.8024 39.0784 111° Southeast  Level Estimated
Tue 12:28:15 PM 27.7596 39.2049 111° Southeast  Level Estimated
Tue 12:29:15 PM 27.7167 39.3313 111° Southeast  Level Estimated
Tue 12:30:15 PM 27.6736 39.4576 111° Southeast  Level Estimated
Tue 12:31:15 PM 27.6305 39.5838 111° Southeast  Level Estimated
Tue 12:32:15 PM 27.5872 39.7100 111° Southeast  Level Estimated
Tue 12:33:15 PM 27.5439 39.8360 111° Southeast  Level Estimated
Tue 12:34:15 PM 27.5004 39.9619 111° Southeast  Level Estimated
Tue 12:35:15 PM 27.4568 40.0878 111° Southeast  Level Estimated
Tue 12:36:15 PM 27.4131 40.2135 111° Southeast  Level Estimated
Tue 12:37:15 PM 27.3692 40.3391 111° Southeast  Level Estimated
Tue 12:38:15 PM 27.3253 40.4646 112° Southeast  Level Estimated
Tue 12:39:15 PM 27.2813 40.5901 112° Southeast  Level Estimated
Tue 12:40:15 PM 27.2371 40.7154 112° Southeast  Level Estimated
Tue 12:41:15 PM 27.1928 40.8406 112° Southeast  Level Estimated
Tue 12:42:15 PM 27.1485 40.9658 112° Southeast  Level Estimated
Tue 12:43:15 PM 27.1040 41.0908 112° Southeast  Level Estimated
Tue 12:44:15 PM 27.0594 41.2157 112° Southeast  Level Estimated
Tue 12:45:15 PM 27.0147 41.3406 112° Southeast  Level Estimated
Tue 12:46:15 PM 26.9698 41.4653 112° Southeast  Level Estimated
Tue 12:47:15 PM 26.9249 41.5899 112° Southeast  Level Estimated
Tue 12:48:15 PM 26.8799 41.7145 112° Southeast  Level Estimated
Tue 12:49:15 PM 26.8347 41.8389 112° Southeast  Level Estimated
Tue 12:50:15 PM 26.7894 41.9632 112° Southeast  Level Estimated
Tue 12:51:15 PM 26.7441 42.0875 112° Southeast  Level Estimated
Tue 12:52:15 PM 26.6986 42.2116 112° Southeast  Level Estimated
Tue 12:53:15 PM 26.6530 42.3357 112° Southeast  Level Estimated
Tue 12:54:15 PM 26.6073 42.4596 112° Southeast  Level Estimated
Tue 12:55:15 PM 26.5615 42.5834 112° Southeast  Level Estimated
Tue 12:56:15 PM 26.5156 42.7072 113° Southeast  Level Estimated
Tue 12:57:15 PM 26.4696 42.8308 113° Southeast  Level Estimated
Tue 12:58:15 PM 26.4235 42.9543 113° Southeast  Level Estimated
Tue 12:59:15 PM 26.3773 43.0778 113° Southeast  Level Estimated
Tue 01:00:15 PM 26.3309 43.2011 113° Southeast  Level Estimated
Tue 01:01:15 PM 26.2845 43.3244 113° Southeast  Level Estimated
Tue 01:02:15 PM 26.2379 43.4475 113° Southeast  Level Estimated
Tue 01:03:15 PM 26.1913 43.5706 113° Southeast  Level Estimated
Tue 01:04:15 PM 26.1446 43.6935 113° Southeast  Level Estimated
Tue 01:05:15 PM 26.0977 43.8164 113° Southeast  Level Estimated
Tue 01:06:15 PM 26.0507 43.9391 113° Southeast  Level Estimated
Tue 01:07:15 PM 26.0037 44.0618 113° Southeast  Level Estimated
Tue 01:08:15 PM 25.9565 44.1843 113° Southeast  Level Estimated
Tue 01:09:15 PM 25.9092 44.3068 113° Southeast  Level Estimated
Tue 01:10:15 PM 25.8619 44.4292 113° Southeast  Level Estimated
Tue 01:11:15 PM 25.8144 44.5514 113° Southeast  Level Estimated
Tue 01:12:15 PM 25.7668 44.6736 113° Southeast  Level Estimated
Tue 01:13:15 PM 25.7191 44.7957 113° Southeast  Level Estimated
Tue 01:14:15 PM 25.6713 44.9176 114° Southeast  Level Estimated
Tue 01:15:15 PM 25.6235 45.0395 114° Southeast  Level Estimated
Tue 01:16:15 PM 25.5755 45.1613 114° Southeast  Level Estimated
Tue 01:17:15 PM 25.5274 45.2829 114° Southeast  Level Estimated
Tue 01:18:15 PM 25.4792 45.4045 114° Southeast  Level Estimated
Tue 01:19:15 PM 25.4309 45.5260 114° Southeast  Level Estimated
Tue 01:20:15 PM 25.3825 45.6474 114° Southeast  Level Estimated
Tue 01:21:15 PM 25.3341 45.7687 114° Southeast  Level Estimated
Tue 01:22:15 PM 25.2855 45.8898 114° Southeast  Level Estimated
Tue 01:23:15 PM 25.2368 46.0109 114° Southeast  Level Estimated
Tue 01:24:15 PM 25.1880 46.1319 114° Southeast  Level Estimated
Tue 01:25:15 PM 25.1391 46.2528 114° Southeast  Level Estimated
Tue 01:26:15 PM 25.0902 46.3736 114° Southeast  Level Estimated
Tue 01:27:15 PM 25.0411 46.4943 114° Southeast  Level Estimated
Tue 01:28:15 PM 24.9919 46.6149 114° Southeast  Level Estimated
Tue 01:29:15 PM 24.9426 46.7354 294° West  Level Estimated
Tue 01:30:15 PM 24.9919 46.6149 114° Southeast  Level Estimated
Tue 01:31:15 PM 24.9426 46.7354 294° West  Level Estimated
Tue 01:32:15 PM 24.9919 46.6149 114° Southeast  Level Estimated
Tue 01:33:15 PM 24.9426 46.7354 294° West  Level Estimated
Tue 01:34:15 PM 24.9919 46.6149 114° Southeast  Level Estimated
Tue 01:35:15 PM 24.9426 46.7354 294° West  Level Estimated
Tue 01:36:15 PM 24.9919 46.6149 114° Southeast  Level Estimated
Tue 01:37:15 PM 24.9426 46.7354 294° West  Level Estimated
Tue 01:38:15 PM 24.9919 46.6149 114° Southeast  Level Estimated
Tue 01:39:15 PM 24.9426 46.7354 294° West  Level Estimated
Tue 01:40:15 PM 24.9919 46.6149 114° Southeast  Level Estimated
Tue 01:41:15 PM 24.9426 46.7354 294° West  Level Estimated
Tue 01:42:15 PM 24.9919 46.6149 114° Southeast  Level Estimated
Tue 01:43:15 PM 24.9426 46.7354 294° West  Level Estimated
Tue 01:44:15 PM 24.9919 46.6149 294° West  Level Estimated

Login

Don't have an account? Register now (free) for customized features, flight alerts, and more!